首页
METAR-TAF:

METAR-TAF

机场 :

斯图加特机场

斯图加特, 德国

纬度: 48-41N, 经度: 009-13E, 海拔: 396米

当前天气观测

该预报发布于31分钟前的04:50 UTC
风速2节,风向多变
温度 13°C
湿度 88%
气压 1022 hPa
能见度10公里或以上
碎片雾

METAR: EDDS 170450Z VRB02KT 9999 BCFG NSC 13/11 Q1022 NOSIG

时间: 07:21 (05:21 UTC)

预报

该预报发布于6小时和21分钟前的23:00 UTC
预报有效从17日的 00点(UTC)到 17日的 24点(UTC)
风速3节,风向多变
能见度10公里或以上
1500米以下无云,无积雨云
短暂存在
从 17日的 02点(UTC)到 17日的 06点(UTC)
能見度: 0700
层高于100英尺
成为
从 17日的 06点(UTC)到 17日的 08点(UTC)
风速7节,风向东转东北
成为
从 17日的 18点(UTC)到 17日的 20点(UTC)
风速3节,风向多变

TAF: EDDS 162300Z 1700/1724 VRB03KT CAVOK TEMPO 1702/1706 0700 FG VV001 BECMG 1706/1708 07007KT BECMG 1718/1720 VRB03KT

超过4000个机场的气象观测和天气预报(METAR&TAF报告)。

可查询的气象台以黄色和红色小点在地图上表示。

将鼠标移到小点上方,可查看气象台名称。

然后点击查看天气观测和预报。

如需切换地图:点击带黑十字的绿色按钮放大地图;点击带横线的绿色按钮缩小地图;或者点击绿色箭头查看邻近地区的地图。


METAR-TAF: